sensor_id;sensor_type;location;lat;lon;timestamp;temperature;humidity
75010;DHT22;63564;46.840;18.336;2024-02-23T00:01:13;10.85;68.07
75010;DHT22;63564;46.840;18.336;2024-02-23T00:04:13;10.71;68.90
75010;DHT22;63564;46.840;18.336;2024-02-23T00:07:14;10.36;71.62
75010;DHT22;63564;46.840;18.336;2024-02-23T00:10:14;10.29;72.29
75010;DHT22;63564;46.840;18.336;2024-02-23T00:13:15;10.13;73.28
75010;DHT22;63564;46.840;18.336;2024-02-23T00:16:15;10.12;73.25
75010;DHT22;63564;46.840;18.336;2024-02-23T00:19:16;10.05;74.09
75010;DHT22;63564;46.840;18.336;2024-02-23T00:22:18;10.02;74.09
75010;DHT22;63564;46.840;18.336;2024-02-23T00:25:18;10.00;75.03
75010;DHT22;63564;46.840;18.336;2024-02-23T00:28:19;9.76;77.46
75010;DHT22;63564;46.840;18.336;2024-02-23T00:31:19;9.57;79.67
75010;DHT22;63564;46.840;18.336;2024-02-23T00:34:20;9.49;80.60
75010;DHT22;63564;46.840;18.336;2024-02-23T00:37:20;9.28;83.10
75010;DHT22;63564;46.840;18.336;2024-02-23T00:40:20;9.28;83.32
75010;DHT22;63564;46.840;18.336;2024-02-23T00:43:21;9.17;83.07
75010;DHT22;63564;46.840;18.336;2024-02-23T00:46:21;9.13;84.15
75010;DHT22;63564;46.840;18.336;2024-02-23T00:49:22;9.09;84.36
75010;DHT22;63564;46.840;18.336;2024-02-23T00:52:22;9.13;83.05
75010;DHT22;63564;46.840;18.336;2024-02-23T00:55:22;9.30;81.33
75010;DHT22;63564;46.840;18.336;2024-02-23T00:58:25;9.44;80.79
75010;DHT22;63564;46.840;18.336;2024-02-23T01:01:25;9.57;79.90
75010;DHT22;63564;46.840;18.336;2024-02-23T01:04:26;9.72;79.06
75010;DHT22;63564;46.840;18.336;2024-02-23T01:07:27;9.81;77.89
75010;DHT22;63564;46.840;18.336;2024-02-23T01:10:27;10.02;76.52
75010;DHT22;63564;46.840;18.336;2024-02-23T01:13:27;10.07;76.28
75010;DHT22;63564;46.840;18.336;2024-02-23T01:16:28;10.13;76.17
75010;DHT22;63564;46.840;18.336;2024-02-23T01:19:28;10.21;75.20
75010;DHT22;63564;46.840;18.336;2024-02-23T01:22:29;10.33;74.69
75010;DHT22;63564;46.840;18.336;2024-02-23T01:25:29;10.40;73.59
75010;DHT22;63564;46.840;18.336;2024-02-23T01:28:29;10.52;73.13
75010;DHT22;63564;46.840;18.336;2024-02-23T01:31:30;10.64;72.49
75010;DHT22;63564;46.840;18.336;2024-02-23T01:34:30;10.69;71.93
75010;DHT22;63564;46.840;18.336;2024-02-23T01:37:30;10.75;71.92
75010;DHT22;63564;46.840;18.336;2024-02-23T01:40:31;10.85;70.78
75010;DHT22;63564;46.840;18.336;2024-02-23T01:43:31;10.82;71.29
75010;DHT22;63564;46.840;18.336;2024-02-23T01:46:32;10.95;71.02
75010;DHT22;63564;46.840;18.336;2024-02-23T01:49:33;10.91;70.63
75010;DHT22;63564;46.840;18.336;2024-02-23T01:52:34;10.88;71.03
75010;DHT22;63564;46.840;18.336;2024-02-23T01:55:35;10.96;71.49
75010;DHT22;63564;46.840;18.336;2024-02-23T01:58:37;10.91;71.60
75010;DHT22;63564;46.840;18.336;2024-02-23T02:01:37;10.83;72.35
75010;DHT22;63564;46.840;18.336;2024-02-23T02:04:38;10.76;72.72
75010;DHT22;63564;46.840;18.336;2024-02-23T02:07:40;10.71;73.05
75010;DHT22;63564;46.840;18.336;2024-02-23T02:10:41;10.67;73.79
75010;DHT22;63564;46.840;18.336;2024-02-23T02:13:43;10.67;74.15
75010;DHT22;63564;46.840;18.336;2024-02-23T02:16:44;10.58;74.74
75010;DHT22;63564;46.840;18.336;2024-02-23T02:19:47;10.55;75.11
75010;DHT22;63564;46.840;18.336;2024-02-23T02:22:48;10.47;75.90
75010;DHT22;63564;46.840;18.336;2024-02-23T02:25:58;10.55;75.62
75010;DHT22;63564;46.840;18.336;2024-02-23T02:28:59;10.62;75.18
75010;DHT22;63564;46.840;18.336;2024-02-23T02:31:59;10.65;75.15
75010;DHT22;63564;46.840;18.336;2024-02-23T02:34:59;10.69;75.40
75010;DHT22;63564;46.840;18.336;2024-02-23T02:38:00;10.65;75.67
75010;DHT22;63564;46.840;18.336;2024-02-23T02:41:00;10.64;75.74
75010;DHT22;63564;46.840;18.336;2024-02-23T02:44:01;10.62;76.01
75010;DHT22;63564;46.840;18.336;2024-02-23T02:47:01;10.62;76.23
75010;DHT22;63564;46.840;18.336;2024-02-23T02:50:02;10.64;76.02
75010;DHT22;63564;46.840;18.336;2024-02-23T02:53:02;10.65;76.18
75010;DHT22;63564;46.840;18.336;2024-02-23T02:56:06;10.69;76.27
75010;DHT22;63564;46.840;18.336;2024-02-23T02:59:06;10.62;76.88
75010;DHT22;63564;46.840;18.336;2024-02-23T03:02:07;10.58;77.22
75010;DHT22;63564;46.840;18.336;2024-02-23T03:05:07;10.60;77.33
75010;DHT22;63564;46.840;18.336;2024-02-23T03:08:08;10.55;77.56
75010;DHT22;63564;46.840;18.336;2024-02-23T03:11:08;10.48;77.94
75010;DHT22;63564;46.840;18.336;2024-02-23T03:14:08;10.50;77.85
75010;DHT22;63564;46.840;18.336;2024-02-23T03:17:10;10.47;78.22
75010;DHT22;63564;46.840;18.336;2024-02-23T03:20:11;10.44;78.45
75010;DHT22;63564;46.840;18.336;2024-02-23T03:23:11;10.41;78.89
75010;DHT22;63564;46.840;18.336;2024-02-23T03:26:11;10.37;78.90
75010;DHT22;63564;46.840;18.336;2024-02-23T03:29:12;10.34;79.25
75010;DHT22;63564;46.840;18.336;2024-02-23T03:32:12;10.37;78.88
75010;DHT22;63564;46.840;18.336;2024-02-23T03:35:13;10.33;79.14
75010;DHT22;63564;46.840;18.336;2024-02-23T03:38:13;10.40;78.60
75010;DHT22;63564;46.840;18.336;2024-02-23T03:41:13;10.34;78.76
75010;DHT22;63564;46.840;18.336;2024-02-23T03:44:14;10.41;78.23
75010;DHT22;63564;46.840;18.336;2024-02-23T03:47:14;10.48;77.32
75010;DHT22;63564;46.840;18.336;2024-02-23T03:50:14;10.54;77.04
75010;DHT22;63564;46.840;18.336;2024-02-23T03:53:15;10.54;76.59
75010;DHT22;63564;46.840;18.336;2024-02-23T03:56:15;10.58;76.06
75010;DHT22;63564;46.840;18.336;2024-02-23T03:59:16;10.65;75.51
75010;DHT22;63564;46.840;18.336;2024-02-23T04:02:16;10.65;75.14
75010;DHT22;63564;46.840;18.336;2024-02-23T04:05:17;10.69;74.75
75010;DHT22;63564;46.840;18.336;2024-02-23T04:08:17;10.69;74.95
75010;DHT22;63564;46.840;18.336;2024-02-23T04:11:17;10.69;74.71
75010;DHT22;63564;46.840;18.336;2024-02-23T04:14:18;10.71;74.29
75010;DHT22;63564;46.840;18.336;2024-02-23T04:17:18;10.69;74.73
75010;DHT22;63564;46.840;18.336;2024-02-23T04:20:19;10.57;75.48
75010;DHT22;63564;46.840;18.336;2024-02-23T04:23:19;10.52;75.65
75010;DHT22;63564;46.840;18.336;2024-02-23T04:26:19;10.47;76.30
75010;DHT22;63564;46.840;18.336;2024-02-23T04:29:20;10.34;76.98
75010;DHT22;63564;46.840;18.336;2024-02-23T04:32:20;10.37;76.93
75010;DHT22;63564;46.840;18.336;2024-02-23T04:35:20;10.33;77.25
75010;DHT22;63564;46.840;18.336;2024-02-23T04:38:21;10.34;77.69
75010;DHT22;63564;46.840;18.336;2024-02-23T04:41:21;10.29;78.00
75010;DHT22;63564;46.840;18.336;2024-02-23T04:44:25;10.27;78.27
75010;DHT22;63564;46.840;18.336;2024-02-23T04:47:25;10.23;78.47
75010;DHT22;63564;46.840;18.336;2024-02-23T04:50:25;10.30;78.53
75010;DHT22;63564;46.840;18.336;2024-02-23T04:53:26;10.29;78.64
75010;DHT22;63564;46.840;18.336;2024-02-23T04:56:26;10.29;79.09
75010;DHT22;63564;46.840;18.336;2024-02-23T04:59:27;10.18;79.44
75010;DHT22;63564;46.840;18.336;2024-02-23T05:02:28;10.14;79.41
75010;DHT22;63564;46.840;18.336;2024-02-23T05:05:35;10.20;79.30
75010;DHT22;63564;46.840;18.336;2024-02-23T05:08:35;10.14;79.35
75010;DHT22;63564;46.840;18.336;2024-02-23T05:11:36;10.13;79.42
75010;DHT22;63564;46.840;18.336;2024-02-23T05:14:36;10.13;79.42
75010;DHT22;63564;46.840;18.336;2024-02-23T05:17:36;10.20;79.26
75010;DHT22;63564;46.840;18.336;2024-02-23T05:20:37;10.21;79.20
75010;DHT22;63564;46.840;18.336;2024-02-23T05:23:37;10.10;79.70
75010;DHT22;63564;46.840;18.336;2024-02-23T05:26:37;10.07;80.13
75010;DHT22;63564;46.840;18.336;2024-02-23T05:29:38;10.05;80.59
75010;DHT22;63564;46.840;18.336;2024-02-23T05:32:38;9.90;81.59
75010;DHT22;63564;46.840;18.336;2024-02-23T05:35:39;9.92;81.66
75010;DHT22;63564;46.840;18.336;2024-02-23T05:38:39;9.79;81.86
75010;DHT22;63564;46.840;18.336;2024-02-23T05:41:40;9.92;81.27
75010;DHT22;63564;46.840;18.336;2024-02-23T05:44:43;9.87;81.39
75010;DHT22;63564;46.840;18.336;2024-02-23T05:47:44;9.92;81.12
75010;DHT22;63564;46.840;18.336;2024-02-23T05:50:44;9.93;81.21
75010;DHT22;63564;46.840;18.336;2024-02-23T05:53:45;9.93;81.14
75010;DHT22;63564;46.840;18.336;2024-02-23T05:56:45;9.95;80.95
75010;DHT22;63564;46.840;18.336;2024-02-23T05:59:46;10.00;80.68
75010;DHT22;63564;46.840;18.336;2024-02-23T06:02:46;10.09;79.60
75010;DHT22;63564;46.840;18.336;2024-02-23T06:05:47;10.12;79.85
75010;DHT22;63564;46.840;18.336;2024-02-23T06:08:47;10.07;79.94
75010;DHT22;63564;46.840;18.336;2024-02-23T06:11:49;10.21;79.26
75010;DHT22;63564;46.840;18.336;2024-02-23T06:14:50;10.17;79.38
75010;DHT22;63564;46.840;18.336;2024-02-23T06:17:51;10.25;78.93
75010;DHT22;63564;46.840;18.336;2024-02-23T06:20:51;10.30;78.67
75010;DHT22;63564;46.840;18.336;2024-02-23T06:23:52;10.30;78.38
75010;DHT22;63564;46.840;18.336;2024-02-23T06:26:53;10.43;78.23
75010;DHT22;63564;46.840;18.336;2024-02-23T06:29:53;10.50;77.61
75010;DHT22;63564;46.840;18.336;2024-02-23T06:32:53;10.50;77.45
75010;DHT22;63564;46.840;18.336;2024-02-23T06:35:54;10.55;76.55
75010;DHT22;63564;46.840;18.336;2024-02-23T06:38:54;10.62;76.46
75010;DHT22;63564;46.840;18.336;2024-02-23T06:41:54;10.64;76.52
75010;DHT22;63564;46.840;18.336;2024-02-23T06:44:55;10.67;76.38
75010;DHT22;63564;46.840;18.336;2024-02-23T06:47:55;10.69;76.30
75010;DHT22;63564;46.840;18.336;2024-02-23T06:50:56;10.67;76.62
75010;DHT22;63564;46.840;18.336;2024-02-23T06:53:57;10.68;76.58
75010;DHT22;63564;46.840;18.336;2024-02-23T06:56:58;10.65;76.77
75010;DHT22;63564;46.840;18.336;2024-02-23T06:59:58;10.65;76.70
75010;DHT22;63564;46.840;18.336;2024-02-23T07:02:58;10.76;76.52
75010;DHT22;63564;46.840;18.336;2024-02-23T07:05:59;10.69;77.00
75010;DHT22;63564;46.840;18.336;2024-02-23T07:08:59;10.73;76.69
75010;DHT22;63564;46.840;18.336;2024-02-23T07:12:00;10.76;76.84
75010;DHT22;63564;46.840;18.336;2024-02-23T07:15:01;10.81;76.77
75010;DHT22;63564;46.840;18.336;2024-02-23T07:18:02;10.79;76.67
75010;DHT22;63564;46.840;18.336;2024-02-23T07:21:02;10.82;76.73
75010;DHT22;63564;46.840;18.336;2024-02-23T07:24:03;10.89;76.48
75010;DHT22;63564;46.840;18.336;2024-02-23T07:27:04;10.83;76.73
75010;DHT22;63564;46.840;18.336;2024-02-23T07:30:05;10.89;76.39
75010;DHT22;63564;46.840;18.336;2024-02-23T07:33:05;10.88;76.81
75010;DHT22;63564;46.840;18.336;2024-02-23T07:36:06;10.92;76.60
75010;DHT22;63564;46.840;18.336;2024-02-23T07:39:08;10.91;76.80
75010;DHT22;63564;46.840;18.336;2024-02-23T07:42:09;10.98;75.82
75010;DHT22;63564;46.840;18.336;2024-02-23T07:45:10;10.96;76.01
75010;DHT22;63564;46.840;18.336;2024-02-23T07:48:11;11.00;76.29
75010;DHT22;63564;46.840;18.336;2024-02-23T07:51:11;11.06;75.48
75010;DHT22;63564;46.840;18.336;2024-02-23T07:54:12;11.06;75.28
75010;DHT22;63564;46.840;18.336;2024-02-23T07:57:12;11.12;75.68
75010;DHT22;63564;46.840;18.336;2024-02-23T08:00:14;11.15;75.51
75010;DHT22;63564;46.840;18.336;2024-02-23T08:03:14;11.09;75.36
75010;DHT22;63564;46.840;18.336;2024-02-23T08:06:14;11.15;75.24
75010;DHT22;63564;46.840;18.336;2024-02-23T08:09:15;11.26;75.28
75010;DHT22;63564;46.840;18.336;2024-02-23T08:12:15;11.27;75.02
75010;DHT22;63564;46.840;18.336;2024-02-23T08:15:16;11.12;75.70
75010;DHT22;63564;46.840;18.336;2024-02-23T08:18:16;11.20;75.38
75010;DHT22;63564;46.840;18.336;2024-02-23T08:21:16;11.28;75.47
75010;DHT22;63564;46.840;18.336;2024-02-23T08:24:17;11.31;75.20
75010;DHT22;63564;46.840;18.336;2024-02-23T08:27:17;11.37;75.39
75010;DHT22;63564;46.840;18.336;2024-02-23T08:30:18;11.13;76.28
75010;DHT22;63564;46.840;18.336;2024-02-23T08:33:20;11.36;75.54
75010;DHT22;63564;46.840;18.336;2024-02-23T08:36:20;11.36;75.59
75010;DHT22;63564;46.840;18.336;2024-02-23T08:39:21;11.36;75.27
75010;DHT22;63564;46.840;18.336;2024-02-23T08:42:22;11.38;75.83
75010;DHT22;63564;46.840;18.336;2024-02-23T08:45:23;11.64;75.32
75010;DHT22;63564;46.840;18.336;2024-02-23T08:48:24;11.88;75.54
75010;DHT22;63564;46.840;18.336;2024-02-23T08:51:24;12.26;75.71
75010;DHT22;63564;46.840;18.336;2024-02-23T08:54:24;11.98;74.58
75010;DHT22;63564;46.840;18.336;2024-02-23T08:57:25;11.55;75.94
75010;DHT22;63564;46.840;18.336;2024-02-23T09:00:26;11.67;79.35
75010;DHT22;63564;46.840;18.336;2024-02-23T09:03:26;11.54;76.20
75010;DHT22;63564;46.840;18.336;2024-02-23T09:06:26;11.53;76.62
75010;DHT22;63564;46.840;18.336;2024-02-23T09:09:27;11.34;76.69
75010;DHT22;63564;46.840;18.336;2024-02-23T09:12:27;11.37;77.03
75010;DHT22;63564;46.840;18.336;2024-02-23T09:15:27;11.28;77.05
75010;DHT22;63564;46.840;18.336;2024-02-23T09:18:28;11.37;77.14
75010;DHT22;63564;46.840;18.336;2024-02-23T09:21:28;11.57;77.61
75010;DHT22;63564;46.840;18.336;2024-02-23T09:24:28;11.64;76.05
75010;DHT22;63564;46.840;18.336;2024-02-23T09:27:29;11.67;76.03
75010;DHT22;63564;46.840;18.336;2024-02-23T09:30:29;11.71;76.22
75010;DHT22;63564;46.840;18.336;2024-02-23T09:33:30;11.58;76.56
75010;DHT22;63564;46.840;18.336;2024-02-23T09:36:31;11.60;76.72
75010;DHT22;63564;46.840;18.336;2024-02-23T09:39:31;11.54;77.66
75010;DHT22;63564;46.840;18.336;2024-02-23T09:42:32;11.50;77.23
75010;DHT22;63564;46.840;18.336;2024-02-23T09:45:33;11.58;76.65
75010;DHT22;63564;46.840;18.336;2024-02-23T09:48:34;11.61;76.44
75010;DHT22;63564;46.840;18.336;2024-02-23T09:51:35;11.61;76.94
75010;DHT22;63564;46.840;18.336;2024-02-23T09:54:37;11.74;75.96
75010;DHT22;63564;46.840;18.336;2024-02-23T09:57:39;11.67;76.80
75010;DHT22;63564;46.840;18.336;2024-02-23T10:00:40;11.89;75.90
75010;DHT22;63564;46.840;18.336;2024-02-23T10:03:41;11.96;75.63
75010;DHT22;63564;46.840;18.336;2024-02-23T10:06:42;12.08;76.41
75010;DHT22;63564;46.840;18.336;2024-02-23T10:09:42;12.08;75.37
75010;DHT22;63564;46.840;18.336;2024-02-23T10:12:42;12.34;74.57
75010;DHT22;63564;46.840;18.336;2024-02-23T10:15:43;12.65;73.73
75010;DHT22;63564;46.840;18.336;2024-02-23T10:18:43;12.70;73.77
75010;DHT22;63564;46.840;18.336;2024-02-23T10:21:45;12.63;74.05
75010;DHT22;63564;46.840;18.336;2024-02-23T10:24:46;12.74;73.61
75010;DHT22;63564;46.840;18.336;2024-02-23T10:27:46;12.68;72.88
75010;DHT22;63564;46.840;18.336;2024-02-23T10:30:48;12.67;73.04
75010;DHT22;63564;46.840;18.336;2024-02-23T10:33:50;12.68;73.21
75010;DHT22;63564;46.840;18.336;2024-02-23T10:36:52;12.71;73.09
75010;DHT22;63564;46.840;18.336;2024-02-23T10:39:57;12.77;73.35
75010;DHT22;63564;46.840;18.336;2024-02-23T10:43:02;12.65;73.12
75010;DHT22;63564;46.840;18.336;2024-02-23T10:46:03;12.57;73.40
75010;DHT22;63564;46.840;18.336;2024-02-23T10:49:08;12.46;73.55
75010;DHT22;63564;46.840;18.336;2024-02-23T10:52:09;12.51;76.49
75010;DHT22;63564;46.840;18.336;2024-02-23T10:55:12;12.53;73.89
75010;DHT22;63564;46.840;18.336;2024-02-23T10:58:12;12.68;73.70
75010;DHT22;63564;46.840;18.336;2024-02-23T11:01:14;12.41;74.48
75010;DHT22;63564;46.840;18.336;2024-02-23T11:04:17;12.50;74.38
75010;DHT22;63564;46.840;18.336;2024-02-23T11:07:19;12.49;75.47
75010;DHT22;63564;46.840;18.336;2024-02-23T11:10:22;12.61;74.52
75010;DHT22;63564;46.840;18.336;2024-02-23T11:13:34;12.41;76.16
75010;DHT22;63564;46.840;18.336;2024-02-23T11:16:38;12.54;74.63
75010;DHT22;63564;46.840;18.336;2024-02-23T11:19:40;12.53;75.00
75010;DHT22;63564;46.840;18.336;2024-02-23T11:22:40;12.76;74.42
75010;DHT22;63564;46.840;18.336;2024-02-23T11:25:41;12.87;74.01
75010;DHT22;63564;46.840;18.336;2024-02-23T11:28:42;12.84;74.69
75010;DHT22;63564;46.840;18.336;2024-02-23T11:31:45;12.83;75.39
75010;DHT22;63564;46.840;18.336;2024-02-23T11:34:56;12.64;75.94
75010;DHT22;63564;46.840;18.336;2024-02-23T11:38:03;12.91;75.97
75010;DHT22;63564;46.840;18.336;2024-02-23T11:41:05;12.74;75.03
75010;DHT22;63564;46.840;18.336;2024-02-23T11:44:06;12.83;76.76
75010;DHT22;63564;46.840;18.336;2024-02-23T11:47:07;12.83;75.14
75010;DHT22;63564;46.840;18.336;2024-02-23T11:50:09;12.83;75.38
75010;DHT22;63564;46.840;18.336;2024-02-23T11:53:10;12.83;75.95
75010;DHT22;63564;46.840;18.336;2024-02-23T11:56:10;13.02;74.19
75010;DHT22;63564;46.840;18.336;2024-02-23T11:59:10;13.08;72.57
75010;DHT22;63564;46.840;18.336;2024-02-23T12:02:12;13.20;72.38
75010;DHT22;63564;46.840;18.336;2024-02-23T12:05:13;13.25;72.05
75010;DHT22;63564;46.840;18.336;2024-02-23T12:08:13;13.30;73.41
75010;DHT22;63564;46.840;18.336;2024-02-23T12:11:14;13.23;71.11
75010;DHT22;63564;46.840;18.336;2024-02-23T12:14:15;13.22;70.55
75010;DHT22;63564;46.840;18.336;2024-02-23T12:17:15;13.35;70.59
75010;DHT22;63564;46.840;18.336;2024-02-23T12:20:15;13.35;71.76
75010;DHT22;63564;46.840;18.336;2024-02-23T12:23:16;13.42;70.80
75010;DHT22;63564;46.840;18.336;2024-02-23T12:26:18;13.33;70.35
75010;DHT22;63564;46.840;18.336;2024-02-23T12:29:18;13.47;69.94
75010;DHT22;63564;46.840;18.336;2024-02-23T12:32:20;13.32;69.95
75010;DHT22;63564;46.840;18.336;2024-02-23T12:35:21;13.33;69.09
75010;DHT22;63564;46.840;18.336;2024-02-23T12:38:22;13.49;70.84
75010;DHT22;63564;46.840;18.336;2024-02-23T12:41:22;13.66;68.23
75010;DHT22;63564;46.840;18.336;2024-02-23T12:44:23;13.64;69.46
75010;DHT22;63564;46.840;18.336;2024-02-23T12:47:23;13.67;69.82
75010;DHT22;63564;46.840;18.336;2024-02-23T12:50:24;13.59;69.78
75010;DHT22;63564;46.840;18.336;2024-02-23T12:53:31;13.64;70.46
75010;DHT22;63564;46.840;18.336;2024-02-23T12:56:36;13.63;68.36
75010;DHT22;63564;46.840;18.336;2024-02-23T12:59:36;13.54;69.08
75010;DHT22;63564;46.840;18.336;2024-02-23T13:02:37;13.81;68.45
75010;DHT22;63564;46.840;18.336;2024-02-23T13:05:37;13.59;68.25
75010;DHT22;63564;46.840;18.336;2024-02-23T13:08:37;13.54;69.25
75010;DHT22;63564;46.840;18.336;2024-02-23T13:11:40;13.78;70.70
75010;DHT22;63564;46.840;18.336;2024-02-23T13:14:41;13.73;70.28
75010;DHT22;63564;46.840;18.336;2024-02-23T13:17:41;13.57;68.64
75010;DHT22;63564;46.840;18.336;2024-02-23T13:20:41;13.47;68.40
75010;DHT22;63564;46.840;18.336;2024-02-23T13:23:42;13.52;68.55
75010;DHT22;63564;46.840;18.336;2024-02-23T13:26:43;13.27;70.04
75010;DHT22;63564;46.840;18.336;2024-02-23T13:29:43;13.26;69.98
75010;DHT22;63564;46.840;18.336;2024-02-23T13:32:44;13.38;70.03
75010;DHT22;63564;46.840;18.336;2024-02-23T13:35:44;13.38;69.88
75010;DHT22;63564;46.840;18.336;2024-02-23T13:38:44;13.42;70.03
75010;DHT22;63564;46.840;18.336;2024-02-23T13:41:45;13.36;70.26
75010;DHT22;63564;46.840;18.336;2024-02-23T13:44:45;13.30;70.27
75010;DHT22;63564;46.840;18.336;2024-02-23T13:48:00;13.39;69.73
75010;DHT22;63564;46.840;18.336;2024-02-23T13:51:01;13.49;70.14
75010;DHT22;63564;46.840;18.336;2024-02-23T13:54:03;13.49;69.99
75010;DHT22;63564;46.840;18.336;2024-02-23T13:57:04;13.30;70.42
75010;DHT22;63564;46.840;18.336;2024-02-23T14:00:04;13.38;69.98
75010;DHT22;63564;46.840;18.336;2024-02-23T14:03:08;13.27;70.76
75010;DHT22;63564;46.840;18.336;2024-02-23T14:06:08;13.29;70.80
75010;DHT22;63564;46.840;18.336;2024-02-23T14:09:09;13.27;70.99
75010;DHT22;63564;46.840;18.336;2024-02-23T14:12:09;13.15;71.61
75010;DHT22;63564;46.840;18.336;2024-02-23T14:15:10;13.22;70.75
75010;DHT22;63564;46.840;18.336;2024-02-23T14:18:10;13.16;71.09
75010;DHT22;63564;46.840;18.336;2024-02-23T14:21:11;13.09;70.73
75010;DHT22;63564;46.840;18.336;2024-02-23T14:24:14;13.01;71.34
75010;DHT22;63564;46.840;18.336;2024-02-23T14:27:14;13.04;71.23
75010;DHT22;63564;46.840;18.336;2024-02-23T14:30:14;12.98;72.46
75010;DHT22;63564;46.840;18.336;2024-02-23T14:33:15;13.02;72.50
75010;DHT22;63564;46.840;18.336;2024-02-23T14:36:17;12.97;72.85
75010;DHT22;63564;46.840;18.336;2024-02-23T14:39:18;12.89;73.46
75010;DHT22;63564;46.840;18.336;2024-02-23T14:42:18;12.73;74.55
75010;DHT22;63564;46.840;18.336;2024-02-23T14:45:18;12.76;74.02
75010;DHT22;63564;46.840;18.336;2024-02-23T14:48:19;12.56;75.55
75010;DHT22;63564;46.840;18.336;2024-02-23T14:51:19;12.47;76.83
75010;DHT22;63564;46.840;18.336;2024-02-23T14:54:20;12.37;77.06
75010;DHT22;63564;46.840;18.336;2024-02-23T14:57:20;12.28;78.52
75010;DHT22;63564;46.840;18.336;2024-02-23T15:00:22;12.37;78.00
75010;DHT22;63564;46.840;18.336;2024-02-23T15:03:22;12.29;77.60
75010;DHT22;63564;46.840;18.336;2024-02-23T15:06:22;12.25;77.78
75010;DHT22;63564;46.840;18.336;2024-02-23T15:09:24;12.33;77.28
75010;DHT22;63564;46.840;18.336;2024-02-23T15:12:24;12.40;76.15
75010;DHT22;63564;46.840;18.336;2024-02-23T15:15:28;12.29;77.08
75010;DHT22;63564;46.840;18.336;2024-02-23T15:18:28;12.23;77.35
75010;DHT22;63564;46.840;18.336;2024-02-23T15:21:29;12.34;76.19
75010;DHT22;63564;46.840;18.336;2024-02-23T15:24:29;12.33;76.09
75010;DHT22;63564;46.840;18.336;2024-02-23T15:27:30;12.19;76.59
75010;DHT22;63564;46.840;18.336;2024-02-23T15:30:30;12.28;76.30
75010;DHT22;63564;46.840;18.336;2024-02-23T15:33:32;12.26;76.19
75010;DHT22;63564;46.840;18.336;2024-02-23T15:36:32;12.26;76.45
75010;DHT22;63564;46.840;18.336;2024-02-23T15:39:33;12.18;76.63
75010;DHT22;63564;46.840;18.336;2024-02-23T15:42:33;12.26;76.42
75010;DHT22;63564;46.840;18.336;2024-02-23T15:45:35;12.06;77.38
75010;DHT22;63564;46.840;18.336;2024-02-23T15:48:36;12.08;77.25
75010;DHT22;63564;46.840;18.336;2024-02-23T15:51:37;12.09;77.22
75010;DHT22;63564;46.840;18.336;2024-02-23T15:54:38;12.11;77.08
75010;DHT22;63564;46.840;18.336;2024-02-23T15:57:39;12.01;77.39
75010;DHT22;63564;46.840;18.336;2024-02-23T16:00:39;12.02;77.12
75010;DHT22;63564;46.840;18.336;2024-02-23T16:03:39;12.03;76.97
75010;DHT22;63564;46.840;18.336;2024-02-23T16:06:40;12.13;76.10
75010;DHT22;63564;46.840;18.336;2024-02-23T16:09:40;12.06;76.49
75010;DHT22;63564;46.840;18.336;2024-02-23T16:12:40;12.13;75.85
75010;DHT22;63564;46.840;18.336;2024-02-23T16:15:41;12.19;75.66
75010;DHT22;63564;46.840;18.336;2024-02-23T16:18:42;12.16;75.68
75010;DHT22;63564;46.840;18.336;2024-02-23T16:21:42;12.05;76.32
75010;DHT22;63564;46.840;18.336;2024-02-23T16:24:43;12.15;75.74
75010;DHT22;63564;46.840;18.336;2024-02-23T16:27:45;12.18;75.57
75010;DHT22;63564;46.840;18.336;2024-02-23T16:30:46;12.13;75.87
75010;DHT22;63564;46.840;18.336;2024-02-23T16:33:47;12.11;75.91
75010;DHT22;63564;46.840;18.336;2024-02-23T16:36:47;12.19;75.48
75010;DHT22;63564;46.840;18.336;2024-02-23T16:39:48;12.12;75.61
75010;DHT22;63564;46.840;18.336;2024-02-23T16:42:48;12.09;75.91
75010;DHT22;63564;46.840;18.336;2024-02-23T16:45:49;12.15;75.65
75010;DHT22;63564;46.840;18.336;2024-02-23T16:48:49;12.18;75.55
75010;DHT22;63564;46.840;18.336;2024-02-23T16:51:49;12.08;76.05
75010;DHT22;63564;46.840;18.336;2024-02-23T16:54:50;12.01;76.45
75010;DHT22;63564;46.840;18.336;2024-02-23T16:57:50;12.08;76.30
75010;DHT22;63564;46.840;18.336;2024-02-23T17:00:50;12.02;76.53
75010;DHT22;63564;46.840;18.336;2024-02-23T17:03:53;12.02;76.62
75010;DHT22;63564;46.840;18.336;2024-02-23T17:06:53;11.95;76.80
75010;DHT22;63564;46.840;18.336;2024-02-23T17:09:57;12.01;76.59
75010;DHT22;63564;46.840;18.336;2024-02-23T17:12:57;12.03;76.36
75010;DHT22;63564;46.840;18.336;2024-02-23T17:15:58;12.09;76.25
75010;DHT22;63564;46.840;18.336;2024-02-23T17:18:58;11.96;76.82
75010;DHT22;63564;46.840;18.336;2024-02-23T17:22:00;12.02;76.49
75010;DHT22;63564;46.840;18.336;2024-02-23T17:25:00;11.95;77.10
75010;DHT22;63564;46.840;18.336;2024-02-23T17:28:01;11.98;76.71
75010;DHT22;63564;46.840;18.336;2024-02-23T17:31:01;11.91;77.17
75010;DHT22;63564;46.840;18.336;2024-02-23T17:34:02;11.89;76.82
75010;DHT22;63564;46.840;18.336;2024-02-23T17:37:02;11.89;77.04
75010;DHT22;63564;46.840;18.336;2024-02-23T17:40:03;11.91;77.14
75010;DHT22;63564;46.840;18.336;2024-02-23T17:43:04;11.85;77.29
75010;DHT22;63564;46.840;18.336;2024-02-23T17:46:04;11.85;76.87
75010;DHT22;63564;46.840;18.336;2024-02-23T17:49:07;11.86;76.70
75010;DHT22;63564;46.840;18.336;2024-02-23T17:52:09;11.79;76.76
75010;DHT22;63564;46.840;18.336;2024-02-23T17:55:09;11.82;76.23
75010;DHT22;63564;46.840;18.336;2024-02-23T17:58:09;11.77;76.18
75010;DHT22;63564;46.840;18.336;2024-02-23T18:01:10;11.88;75.52
75010;DHT22;63564;46.840;18.336;2024-02-23T18:04:10;11.82;75.25
75010;DHT22;63564;46.840;18.336;2024-02-23T18:07:11;11.89;74.64
75010;DHT22;63564;46.840;18.336;2024-02-23T18:10:11;11.94;74.18
75010;DHT22;63564;46.840;18.336;2024-02-23T18:13:12;12.01;73.31
75010;DHT22;63564;46.840;18.336;2024-02-23T18:16:12;11.99;73.19
75010;DHT22;63564;46.840;18.336;2024-02-23T18:19:14;12.06;72.53
75010;DHT22;63564;46.840;18.336;2024-02-23T18:22:14;12.05;72.48
75010;DHT22;63564;46.840;18.336;2024-02-23T18:25:15;12.02;72.95
75010;DHT22;63564;46.840;18.336;2024-02-23T18:28:15;11.96;73.04
75010;DHT22;63564;46.840;18.336;2024-02-23T18:31:17;11.85;73.75
75010;DHT22;63564;46.840;18.336;2024-02-23T18:34:18;11.84;73.67
75010;DHT22;63564;46.840;18.336;2024-02-23T18:37:18;11.73;74.06
75010;DHT22;63564;46.840;18.336;2024-02-23T18:40:18;11.88;73.17
75010;DHT22;63564;46.840;18.336;2024-02-23T18:43:19;11.84;73.25
75010;DHT22;63564;46.840;18.336;2024-02-23T18:46:19;11.84;72.96